Time;durP1;ratioP1;P1;durP2;ratioP2;P2;SDS_P1;SDS_P2;PMS_P1;PMS_P2;Temp;Humidity;BMP_temperature;BMP_pressure;BME280_temperature;BME280_humidity;BME280_pressure;Samples;Min_cycle;Max_cycle;Signal;HPM_P1;HPM_P2
2022/08/30 00:03:15;;;;;;;349.38;195.88;;;;;;;;;;4983000;28;20227;-48
2022/08/30 00:05:42;;;;;;;399.23;223.48;;;;;;;;;;4985032;28;20217;-48
2022/08/30 00:08:08;;;;;;;310.50;173.45;;;;;;;;;;4985625;28;20223;-48
2022/08/30 00:10:34;;;;;;;333.20;182.60;;;;;;;;;;4986276;28;22734;-48
2022/08/30 00:13:00;;;;;;;322.15;177.75;;;;;;;;;;4982866;28;20224;-48
2022/08/30 00:15:28;;;;;;;351.55;190.20;;;;;;;;;;4989180;28;20347;-48
2022/08/30 00:17:53;;;;;;;335.67;183.63;;;;;;;;;;4978650;28;20221;-48
2022/08/30 00:20:22;;;;;;;356.10;196.65;;;;;;;;;;4989973;28;20224;-48
2022/08/30 00:22:48;;;;;;;357.67;191.80;;;;;;;;;;4985690;28;20294;-48
2022/08/30 00:25:14;;;;;;;351.17;192.90;;;;;;;;;;4985927;28;20259;-48
2022/08/30 00:27:40;;;;;;;368.65;200.02;;;;;;;;;;4979596;28;20271;-48
2022/08/30 00:30:07;;;;;;;336.65;186.75;;;;;;;;;;4989654;28;20641;-48
2022/08/30 00:32:33;;;;;;;377.25;203.52;;;;;;;;;;4983546;28;20249;-48
2022/08/30 00:34:59;;;;;;;359.33;193.15;;;;;;;;;;4989019;28;20711;-47
2022/08/30 00:37:26;;;;;;;381.80;205.82;;;;;;;;;;4983061;28;20308;-48
2022/08/30 00:39:52;;;;;;;354.60;191.70;;;;;;;;;;4985915;28;20601;-47
2022/08/30 00:42:18;;;;;;;334.38;183.13;;;;;;;;;;4988836;28;20185;-48
2022/08/30 00:44:44;;;;;;;405.00;216.82;;;;;;;;;;4984630;28;20299;-48
2022/08/30 00:47:10;;;;;;;384.65;208.32;;;;;;;;;;4982804;28;20335;-48
2022/08/30 00:49:37;;;;;;;359.70;198.35;;;;;;;;;;4984001;28;20656;-48
2022/08/30 00:52:03;;;;;;;326.70;178.32;;;;;;;;;;4983530;28;20703;-47
2022/08/30 00:54:30;;;;;;;374.75;203.93;;;;;;;;;;4987578;28;20570;-48
2022/08/30 00:56:57;;;;;;;409.77;221.95;;;;;;;;;;4987079;28;20184;-48
2022/08/30 00:59:24;;;;;;;298.17;168.15;;;;;;;;;;4987651;28;20246;-48
2022/08/30 01:01:50;;;;;;;367.27;199.18;;;;;;;;;;4980233;28;20694;-48
2022/08/30 01:04:18;;;;;;;397.50;215.27;;;;;;;;;;4981875;28;20291;-48
2022/08/30 01:06:44;;;;;;;373.77;206.98;;;;;;;;;;4982598;28;20196;-48
2022/08/30 01:09:11;;;;;;;345.23;187.23;;;;;;;;;;4986848;28;20239;-48
2022/08/30 01:11:40;;;;;;;406.27;215.37;;;;;;;;;;4981489;28;20308;-47
2022/08/30 01:14:07;;;;;;;358.65;196.13;;;;;;;;;;4985510;28;20295;-48
2022/08/30 01:16:33;;;;;;;363.02;194.10;;;;;;;;;;4983380;28;20509;-48
2022/08/30 01:19:00;;;;;;;360.08;192.68;;;;;;;;;;4982988;28;20225;-48
2022/08/30 01:21:33;;;;;;;360.17;195.00;;;;;;;;;;4984912;28;20600;-48
2022/08/30 01:24:00;;;;;;;387.42;209.82;;;;;;;;;;4980627;28;20232;-47
2022/08/30 01:26:27;;;;;;;340.17;183.65;;;;;;;;;;4979662;28;20420;-48
2022/08/30 01:28:55;;;;;;;341.80;187.63;;;;;;;;;;4984790;28;20333;-48
2022/08/30 01:31:21;;;;;;;366.95;200.85;;;;;;;;;;4988416;28;20305;-48
2022/08/30 01:33:47;;;;;;;384.07;208.10;;;;;;;;;;4982262;28;20212;-47
2022/08/30 01:36:14;;;;;;;334.23;183.10;;;;;;;;;;4990138;28;20185;-48
2022/08/30 01:38:48;;;;;;;319.42;175.13;;;;;;;;;;4988314;28;20220;-48
2022/08/30 01:41:15;;;;;;;344.55;189.50;;;;;;;;;;4985492;28;20216;-48
2022/08/30 01:43:41;;;;;;;367.52;201.40;;;;;;;;;;4978380;28;20251;-48
2022/08/30 01:46:10;;;;;;;365.17;199.43;;;;;;;;;;4982453;28;20217;-48
2022/08/30 01:48:36;;;;;;;384.08;202.93;;;;;;;;;;4980064;28;20185;-48
2022/08/30 01:51:02;;;;;;;336.67;181.13;;;;;;;;;;4985371;28;20185;-48
2022/08/30 01:53:28;;;;;;;339.52;182.48;;;;;;;;;;4985341;28;20534;-48
2022/08/30 01:55:54;;;;;;;387.90;207.50;;;;;;;;;;4984608;28;20232;-48
2022/08/30 01:58:22;;;;;;;391.13;210.50;;;;;;;;;;4984015;28;20278;-48
2022/08/30 02:00:47;;;;;;;371.58;200.48;;;;;;;;;;4982777;28;20801;-48
2022/08/30 02:03:14;;;;;;;398.27;209.73;;;;;;;;;;4980289;28;20368;-48
2022/08/30 02:05:39;;;;;;;361.70;197.88;;;;;;;;;;4981773;28;20224;-48
2022/08/30 02:08:05;;;;;;;373.17;203.80;;;;;;;;;;4980978;28;20217;-48
2022/08/30 02:10:32;;;;;;;393.80;212.65;;;;;;;;;;4986003;28;20707;-48
2022/08/30 02:12:58;;;;;;;342.20;186.70;;;;;;;;;;4983916;28;20232;-48
2022/08/30 02:15:24;;;;;;;359.15;199.18;;;;;;;;;;4987833;28;20200;-48
2022/08/30 02:17:50;;;;;;;369.42;201.38;;;;;;;;;;4983868;28;20998;-47
2022/08/30 02:20:16;;;;;;;362.45;195.70;;;;;;;;;;4983208;28;20730;-48
2022/08/30 02:22:42;;;;;;;333.02;180.93;;;;;;;;;;4991051;28;20256;-48
2022/08/30 02:25:08;;;;;;;374.33;203.43;;;;;;;;;;4980489;28;20227;-48
2022/08/30 02:27:34;;;;;;;396.98;199.20;;;;;;;;;;5001042;23;20282;-50
2022/08/30 02:30:00;;;;;;;310.20;159.05;;;;;;;;;;4997241;28;20217;-49
2022/08/30 02:32:26;;;;;;;392.48;194.50;;;;;;;;;;4989610;28;20255;-50
2022/08/30 02:34:53;;;;;;;373.23;185.77;;;;;;;;;;4971793;28;20220;-50
2022/08/30 02:37:19;;;;;;;341.50;171.85;;;;;;;;;;4971864;28;20618;-50
2022/08/30 02:39:45;;;;;;;419.67;206.45;;;;;;;;;;4967398;28;20264;-50
2022/08/30 02:42:11;;;;;;;335.95;168.27;;;;;;;;;;4975653;28;20186;-49
2022/08/30 02:44:37;;;;;;;331.08;168.98;;;;;;;;;;4973518;28;20233;-50
2022/08/30 02:47:03;;;;;;;332.58;168.93;;;;;;;;;;4977508;28;20252;-50
2022/08/30 02:49:29;;;;;;;348.35;175.10;;;;;;;;;;4973433;28;20250;-51
2022/08/30 02:51:55;;;;;;;362.65;183.85;;;;;;;;;;4973998;28;20696;-50
2022/08/30 02:54:21;;;;;;;370.97;185.17;;;;;;;;;;4976809;28;20245;-50
2022/08/30 02:56:47;;;;;;;347.67;178.35;;;;;;;;;;4975603;28;20252;-50
2022/08/30 02:59:14;;;;;;;347.63;183.93;;;;;;;;;;4969351;28;20217;-50
2022/08/30 03:01:40;;;;;;;353.67;182.77;;;;;;;;;;4974120;28;20232;-51
2022/08/30 03:04:06;;;;;;;324.25;167.02;;;;;;;;;;4969876;28;20239;-49
2022/08/30 03:06:32;;;;;;;330.17;174.85;;;;;;;;;;4975029;28;20473;-50
2022/08/30 03:08:58;;;;;;;382.42;200.95;;;;;;;;;;4970703;28;20721;-51
2022/08/30 03:11:24;;;;;;;374.15;195.15;;;;;;;;;;4966804;28;20300;-50
2022/08/30 03:13:50;;;;;;;362.95;195.50;;;;;;;;;;4971056;28;20339;-50
2022/08/30 03:16:16;;;;;;;323.42;177.23;;;;;;;;;;4966953;28;20309;-50
2022/08/30 03:18:42;;;;;;;311.13;167.00;;;;;;;;;;4971484;28;20220;-50
2022/08/30 03:21:15;;;;;;;383.95;203.10;;;;;;;;;;4964365;28;20663;-50
2022/08/30 03:23:41;;;;;;;329.58;178.30;;;;;;;;;;4970883;28;20307;-50
2022/08/30 03:26:10;;;;;;;394.35;206.55;;;;;;;;;;4961790;28;20647;-50
2022/08/30 03:28:37;;;;;;;398.38;206.93;;;;;;;;;;4968264;28;20229;-51
2022/08/30 03:31:04;;;;;;;403.83;204.85;;;;;;;;;;4967617;28;20289;-50
2022/08/30 03:33:30;;;;;;;394.20;204.07;;;;;;;;;;4967450;28;20284;-50
2022/08/30 03:35:56;;;;;;;396.23;203.50;;;;;;;;;;4970812;28;20660;-50
2022/08/30 03:38:23;;;;;;;365.60;194.35;;;;;;;;;;4970598;28;20725;-50
2022/08/30 03:40:49;;;;;;;337.05;177.93;;;;;;;;;;4965025;28;20232;-51
2022/08/30 03:43:14;;;;;;;312.70;165.90;;;;;;;;;;4971378;28;20608;-50
2022/08/30 03:45:40;;;;;;;349.23;186.45;;;;;;;;;;4969384;28;20193;-50
2022/08/30 03:48:06;;;;;;;353.83;188.43;;;;;;;;;;4951323;28;20193;-50
2022/08/30 03:50:34;;;;;;;354.55;190.38;;;;;;;;;;4965986;28;20307;-50
2022/08/30 03:53:00;;;;;;;406.00;208.90;;;;;;;;;;4967050;28;20744;-50
2022/08/30 03:55:27;;;;;;;379.83;196.68;;;;;;;;;;4966413;28;20617;-50
2022/08/30 03:57:53;;;;;;;388.58;203.18;;;;;;;;;;4965368;28;20210;-50
2022/08/30 04:00:19;;;;;;;361.48;191.70;;;;;;;;;;4969067;28;20786;-50
2022/08/30 04:02:45;;;;;;;394.38;205.35;;;;;;;;;;4965118;28;20280;-50
2022/08/30 04:05:11;;;;;;;353.83;189.82;;;;;;;;;;4968356;28;20254;-50
2022/08/30 04:07:37;;;;;;;370.60;196.07;;;;;;;;;;4970229;28;20247;-49
2022/08/30 04:10:04;;;;;;;365.67;195.87;;;;;;;;;;4965608;28;20716;-50
2022/08/30 04:12:30;;;;;;;365.30;195.17;;;;;;;;;;4968726;28;20256;-50
2022/08/30 04:14:56;;;;;;;421.20;218.20;;;;;;;;;;4964675;28;20689;-51
2022/08/30 04:17:22;;;;;;;417.07;218.80;;;;;;;;;;4964437;28;20564;-50
2022/08/30 04:19:48;;;;;;;380.10;199.20;;;;;;;;;;4963995;28;20681;-50
2022/08/30 04:22:15;;;;;;;379.33;198.27;;;;;;;;;;4966765;28;20591;-50
2022/08/30 04:24:41;;;;;;;361.52;191.57;;;;;;;;;;4968377;28;20197;-51
2022/08/30 04:27:08;;;;;;;408.38;209.82;;;;;;;;;;4969728;28;20626;-50
2022/08/30 04:29:34;;;;;;;402.80;209.07;;;;;;;;;;4946360;28;20867;-51
2022/08/30 04:32:00;;;;;;;399.02;208.80;;;;;;;;;;4967083;28;20233;-50
2022/08/30 04:34:26;;;;;;;353.05;186.40;;;;;;;;;;4966355;28;20228;-50
2022/08/30 04:36:52;;;;;;;370.85;194.05;;;;;;;;;;4967018;28;20218;-50
2022/08/30 04:39:18;;;;;;;359.90;193.57;;;;;;;;;;4966070;28;20212;-50
2022/08/30 04:41:44;;;;;;;407.58;215.65;;;;;;;;;;4969276;28;20308;-50
2022/08/30 04:44:10;;;;;;;409.13;213.63;;;;;;;;;;4962122;28;20229;-50
2022/08/30 04:46:36;;;;;;;332.42;182.25;;;;;;;;;;4968225;28;20218;-52
2022/08/30 04:49:03;;;;;;;369.70;195.30;;;;;;;;;;4962723;28;20224;-53
2022/08/30 04:51:29;;;;;;;373.77;198.45;;;;;;;;;;4964480;28;20534;-53
2022/08/30 04:53:55;;;;;;;324.27;178.80;;;;;;;;;;4966794;28;20261;-53
2022/08/30 04:56:22;;;;;;;322.23;175.30;;;;;;;;;;4963773;28;20210;-52
2022/08/30 04:58:49;;;;;;;408.90;213.25;;;;;;;;;;4967260;28;20336;-53
2022/08/30 05:01:16;;;;;;;386.25;202.70;;;;;;;;;;4969644;28;20221;-52
2022/08/30 05:03:42;;;;;;;397.80;205.35;;;;;;;;;;4965304;28;20221;-52
2022/08/30 05:06:10;;;;;;;394.05;206.15;;;;;;;;;;4979563;28;20178;-53
2022/08/30 05:08:36;;;;;;;357.30;185.10;;;;;;;;;;4974258;28;20424;-53
2022/08/30 05:11:03;;;;;;;389.30;204.98;;;;;;;;;;4969182;28;20220;-53
2022/08/30 05:13:29;;;;;;;376.67;202.80;;;;;;;;;;4968651;28;20631;-53
2022/08/30 05:15:55;;;;;;;430.85;219.02;;;;;;;;;;4965373;28;20446;-53
2022/08/30 05:18:21;;;;;;;332.27;179.65;;;;;;;;;;4964915;28;20651;-53
2022/08/30 05:20:47;;;;;;;397.40;208.98;;;;;;;;;;4967088;28;20464;-53
2022/08/30 05:23:13;;;;;;;360.02;184.82;;;;;;;;;;4972477;28;20213;-53
2022/08/30 05:25:40;;;;;;;446.20;206.48;;;;;;;;;;4968226;28;20224;-53
2022/08/30 05:28:06;;;;;;;448.20;210.20;;;;;;;;;;4943556;28;20240;-53
2022/08/30 05:30:33;;;;;;;396.48;206.32;;;;;;;;;;4962944;28;20181;-53
2022/08/30 05:33:00;;;;;;;435.10;221.90;;;;;;;;;;4963835;28;20181;-53
2022/08/30 05:35:26;;;;;;;356.58;191.10;;;;;;;;;;4958832;28;20623;-53
2022/08/30 05:37:53;;;;;;;417.80;222.68;;;;;;;;;;4965479;28;20326;-53
2022/08/30 05:40:19;;;;;;;389.38;205.93;;;;;;;;;;4964732;28;20253;-53
2022/08/30 05:42:45;;;;;;;451.25;236.68;;;;;;;;;;4962004;28;20289;-53
2022/08/30 05:45:12;;;;;;;388.95;208.07;;;;;;;;;;4962205;28;20297;-53
2022/08/30 05:47:38;;;;;;;382.77;202.65;;;;;;;;;;4965938;28;20225;-53
2022/08/30 05:50:05;;;;;;;418.58;217.93;;;;;;;;;;4965737;28;20209;-53
2022/08/30 05:52:34;;;;;;;337.30;182.57;;;;;;;;;;4965465;28;20210;-53
2022/08/30 05:55:02;;;;;;;381.73;203.15;;;;;;;;;;4964342;28;20923;-53
2022/08/30 05:57:30;;;;;;;464.92;240.93;;;;;;;;;;4965432;28;21078;-53
2022/08/30 05:59:56;;;;;;;376.58;195.80;;;;;;;;;;4966080;28;20213;-53
2022/08/30 06:02:22;;;;;;;436.65;229.85;;;;;;;;;;4957583;28;20224;-53
2022/08/30 06:04:48;;;;;;;787.80;392.73;;;;;;;;;;4940577;28;20688;-54
2022/08/30 06:07:14;;;;;;;436.25;224.32;;;;;;;;;;4948360;28;20210;-53
2022/08/30 06:09:40;;;;;;;451.38;236.25;;;;;;;;;;4967069;28;20280;-53
2022/08/30 06:12:06;;;;;;;386.60;204.48;;;;;;;;;;4968836;28;20237;-53
2022/08/30 06:14:32;;;;;;;373.17;203.38;;;;;;;;;;4966949;28;20434;-53
2022/08/30 06:16:58;;;;;;;375.67;200.52;;;;;;;;;;4970156;28;20218;-52
2022/08/30 06:19:24;;;;;;;367.10;197.30;;;;;;;;;;4968852;28;20328;-52
2022/08/30 06:21:50;;;;;;;409.02;212.07;;;;;;;;;;4945658;28;20285;-52
2022/08/30 06:24:17;;;;;;;417.27;220.27;;;;;;;;;;4969949;28;20417;-52
2022/08/30 06:26:44;;;;;;;433.25;223.25;;;;;;;;;;4967741;28;20594;-52
2022/08/30 06:29:11;;;;;;;390.52;205.75;;;;;;;;;;4968893;28;20225;-52
2022/08/30 06:31:37;;;;;;;412.15;218.07;;;;;;;;;;4970502;28;20780;-52
2022/08/30 06:34:03;;;;;;;403.08;208.48;;;;;;;;;;4961692;28;20722;-53
2022/08/30 06:36:29;;;;;;;430.38;228.70;;;;;;;;;;4968126;28;20205;-53
2022/08/30 06:38:57;;;;;;;431.98;227.70;;;;;;;;;;4959701;28;20178;-51
2022/08/30 06:41:24;;;;;;;427.38;223.43;;;;;;;;;;4953371;28;20211;-52
2022/08/30 06:43:50;;;;;;;361.95;195.73;;;;;;;;;;4971673;28;20221;-51
2022/08/30 06:46:17;;;;;;;439.02;232.07;;;;;;;;;;4963132;28;20382;-51
2022/08/30 06:48:43;;;;;;;416.02;218.43;;;;;;;;;;4960605;28;20216;-51
2022/08/30 06:51:09;;;;;;;419.25;215.18;;;;;;;;;;4966771;28;20085;-51
2022/08/30 06:53:35;;;;;;;410.67;220.65;;;;;;;;;;4965152;28;20218;-51
2022/08/30 06:56:03;;;;;;;383.60;200.55;;;;;;;;;;4969698;28;20249;-49
2022/08/30 06:58:30;;;;;;;393.35;201.80;;;;;;;;;;4969522;28;20317;-49
2022/08/30 07:00:56;;;;;;;434.38;227.57;;;;;;;;;;4969366;28;20221;-48
2022/08/30 07:03:22;;;;;;;423.65;222.25;;;;;;;;;;4958710;28;20678;-49
2022/08/30 07:05:48;;;;;;;420.38;222.27;;;;;;;;;;4967807;28;20727;-49
2022/08/30 07:08:15;;;;;;;439.48;225.02;;;;;;;;;;4960568;28;20229;-49
2022/08/30 07:10:41;;;;;;;477.60;230.05;;;;;;;;;;4957546;28;20682;-49
2022/08/30 07:13:08;;;;;;;458.30;227.25;;;;;;;;;;4959531;28;20221;-49
2022/08/30 07:15:34;;;;;;;449.50;233.88;;;;;;;;;;4962692;28;20558;-48
2022/08/30 07:20:45;;;;;;;476.60;231.70;;;;;;;;;;4962357;28;20272;-51
2022/08/30 07:23:11;;;;;;;461.02;239.38;;;;;;;;;;4955267;28;20218;-51
2022/08/30 07:25:37;;;;;;;461.80;250.50;;;;;;;;;;4965521;28;20263;-51
2022/08/30 07:28:04;;;;;;;487.63;259.05;;;;;;;;;;4967832;28;20244;-51
2022/08/30 07:30:31;;;;;;;501.88;258.08;;;;;;;;;;4964786;28;20249;-51
2022/08/30 07:32:57;;;;;;;448.90;227.85;;;;;;;;;;4965194;28;20182;-51
2022/08/30 07:35:23;;;;;;;487.58;255.05;;;;;;;;;;4964558;28;20315;-51
2022/08/30 07:37:49;;;;;;;492.75;265.35;;;;;;;;;;4961583;28;20555;-51
2022/08/30 07:40:16;;;;;;;418.55;221.13;;;;;;;;;;4963995;28;20237;-51
2022/08/30 07:42:42;;;;;;;412.67;230.13;;;;;;;;;;4961968;28;20189;-51
2022/08/30 07:45:08;;;;;;;425.90;237.52;;;;;;;;;;4962567;28;20217;-51
2022/08/30 07:47:34;;;;;;;481.73;265.25;;;;;;;;;;4961267;28;20221;-51
2022/08/30 07:50:00;;;;;;;402.73;224.43;;;;;;;;;;4969501;28;20241;-51
2022/08/30 07:52:27;;;;;;;426.88;234.27;;;;;;;;;;4970010;28;20224;-51
2022/08/30 07:54:55;;;;;;;456.73;249.57;;;;;;;;;;4960420;28;20771;-51
2022/08/30 07:57:22;;;;;;;438.48;227.88;;;;;;;;;;4960200;28;20182;-51
2022/08/30 07:59:47;;;;;;;491.17;254.73;;;;;;;;;;4954398;28;20248;-51
2022/08/30 08:02:13;;;;;;;534.85;270.35;;;;;;;;;;4956207;28;20364;-51
2022/08/30 08:04:39;;;;;;;428.23;240.65;;;;;;;;;;4958177;28;20356;-51
2022/08/30 08:07:05;;;;;;;463.30;255.95;;;;;;;;;;4960997;28;20295;-51
2022/08/30 08:09:32;;;;;;;437.83;247.77;;;;;;;;;;4959751;28;20279;-51
2022/08/30 08:11:58;;;;;;;423.40;238.95;;;;;;;;;;4967253;28;20190;-51
2022/08/30 08:14:24;;;;;;;437.20;247.40;;;;;;;;;;4958935;28;20749;-51
2022/08/30 08:16:51;;;;;;;451.20;245.80;;;;;;;;;;4967303;28;20237;-51
2022/08/30 08:19:18;;;;;;;485.75;256.90;;;;;;;;;;4942484;28;20218;-51
2022/08/30 08:21:44;;;;;;;489.10;260.65;;;;;;;;;;4958598;28;20261;-51
2022/08/30 08:24:10;;;;;;;473.27;265.27;;;;;;;;;;4962419;28;20231;-51
2022/08/30 08:26:37;;;;;;;499.48;277.60;;;;;;;;;;4962301;28;20631;-51
2022/08/30 08:29:04;;;;;;;407.08;236.82;;;;;;;;;;4974770;23;20748;-54
2022/08/30 08:31:30;;;;;;;391.23;225.63;;;;;;;;;;4961978;28;20207;-54
2022/08/30 08:33:58;;;;;;;420.98;241.65;;;;;;;;;;4950880;28;20253;-54
2022/08/30 08:36:23;;;;;;;421.63;240.52;;;;;;;;;;4952180;28;20233;-54
2022/08/30 08:38:49;;;;;;;440.77;253.30;;;;;;;;;;4950257;28;22038;-54
2022/08/30 08:41:36;;;;;;;428.02;246.35;;;;;;;;;;4956623;28;20336;-54
2022/08/30 08:44:12;;;;;;;433.85;254.20;;;;;;;;;;4951553;28;20234;-54
2022/08/30 08:46:52;;;;;;;421.42;246.88;;;;;;;;;;4951639;28;20241;-54
2022/08/30 08:49:18;;;;;;;416.92;242.10;;;;;;;;;;4949050;28;20846;-54
2022/08/30 08:54:34;;;;;;;426.17;242.25;;;;;;;;;;4949627;28;20226;-57
2022/08/30 08:57:00;;;;;;;408.40;235.23;;;;;;;;;;4952390;28;20512;-54
2022/08/30 08:59:26;;;;;;;433.30;242.40;;;;;;;;;;4947527;28;20226;-54
2022/08/30 09:01:52;;;;;;;439.83;245.98;;;;;;;;;;4958785;28;20218;-54
2022/08/30 09:04:24;;;;;;;424.23;248.50;;;;;;;;;;4952358;28;20320;-54
2022/08/30 09:06:58;;;;;;;445.95;257.67;;;;;;;;;;4956346;28;20218;-54
2022/08/30 09:09:32;;;;;;;405.02;234.07;;;;;;;;;;4955964;28;20551;-54
2022/08/30 09:11:58;;;;;;;443.50;252.80;;;;;;;;;;4951247;28;20226;-54
2022/08/30 09:14:26;;;;;;;402.15;242.00;;;;;;;;;;4953724;28;20280;-54
2022/08/30 09:17:06;;;;;;;407.10;246.73;;;;;;;;;;4952646;28;20240;-54
2022/08/30 09:19:38;;;;;;;410.83;235.15;;;;;;;;;;4948567;28;20300;-56
2022/08/30 09:22:27;;;;;;;383.75;226.50;;;;;;;;;;4954940;28;20301;-56
2022/08/30 09:24:59;;;;;;;375.90;220.90;;;;;;;;;;4955082;28;20222;-56
2022/08/30 09:27:29;;;;;;;447.92;252.07;;;;;;;;;;4952753;28;20197;-56
2022/08/30 09:29:56;;;;;;;471.02;256.95;;;;;;;;;;4953197;28;20309;-54
2022/08/30 09:32:27;;;;;;;412.00;238.25;;;;;;;;;;4947781;28;20214;-56
2022/08/30 09:34:53;;;;;;;439.77;257.75;;;;;;;;;;4943606;28;20237;-55
2022/08/30 09:37:24;;;;;;;376.20;225.65;;;;;;;;;;4959479;28;20218;-56
2022/08/30 09:39:50;;;;;;;394.35;230.32;;;;;;;;;;4951252;28;20602;-56
2022/08/30 09:42:19;;;;;;;397.30;234.55;;;;;;;;;;4957052;28;20190;-56
2022/08/30 09:44:45;;;;;;;464.30;268.90;;;;;;;;;;4947824;28;20635;-56
2022/08/30 09:47:19;;;;;;;408.00;240.90;;;;;;;;;;4950496;28;20226;-56
2022/08/30 09:49:45;;;;;;;385.73;230.03;;;;;;;;;;4956636;28;20194;-56
2022/08/30 09:52:22;;;;;;;390.92;235.85;;;;;;;;;;4959303;28;20297;-56
2022/08/30 09:55:13;;;;;;;387.65;230.10;;;;;;;;;;4963108;28;20226;-56
2022/08/30 09:57:51;;;;;;;379.33;229.27;;;;;;;;;;4952179;28;20194;-56
2022/08/30 10:00:21;;;;;;;377.08;225.98;;;;;;;;;;4964953;28;20214;-56
2022/08/30 10:02:50;;;;;;;425.17;252.80;;;;;;;;;;4958649;28;20211;-57
2022/08/30 10:05:42;;;;;;;409.80;241.75;;;;;;;;;;4947895;28;20599;-55
2022/08/30 10:08:11;;;;;;;471.15;273.98;;;;;;;;;;4965693;28;20320;-55
2022/08/30 10:10:46;;;;;;;432.30;258.80;;;;;;;;;;4946197;28;20215;-55
2022/08/30 10:13:28;;;;;;;447.33;268.27;;;;;;;;;;4944890;28;20330;-55
2022/08/30 10:16:13;;;;;;;420.77;257.23;;;;;;;;;;4952837;28;20631;-55
2022/08/30 10:18:58;;;;;;;403.52;246.88;;;;;;;;;;4939871;28;20210;-54
2022/08/30 10:21:44;;;;;;;401.63;245.95;;;;;;;;;;4956221;28;20732;-55
2022/08/30 10:24:12;;;;;;;435.70;262.15;;;;;;;;;;4953923;28;20236;-54
2022/08/30 10:26:42;;;;;;;478.92;268.88;;;;;;;;;;4957033;28;20674;-51
2022/08/30 10:29:13;;;;;;;434.15;238.48;;;;;;;;;;4950407;28;20215;-51
2022/08/30 10:31:43;;;;;;;427.40;243.10;;;;;;;;;;4949176;28;20297;-51
2022/08/30 10:34:11;;;;;;;466.30;262.75;;;;;;;;;;4938864;28;20230;-51
2022/08/30 10:36:46;;;;;;;457.48;263.48;;;;;;;;;;4942355;28;20275;-51
2022/08/30 10:39:19;;;;;;;419.05;254.10;;;;;;;;;;4939693;28;20797;-51
2022/08/30 10:41:58;;;;;;;438.73;261.80;;;;;;;;;;4942317;28;20317;-51
2022/08/30 10:44:32;;;;;;;545.22;299.27;;;;;;;;;;4930624;28;20214;-54
2022/08/30 10:47:01;;;;;;;394.70;243.05;;;;;;;;;;4963628;28;20221;-54
2022/08/30 10:49:29;;;;;;;379.00;226.75;;;;;;;;;;4965471;28;20297;-54
2022/08/30 10:52:01;;;;;;;371.70;224.85;;;;;;;;;;4974110;28;20317;-54
2022/08/30 10:54:32;;;;;;;356.92;217.93;;;;;;;;;;4968024;28;20862;-54
2022/08/30 10:56:59;;;;;;;368.23;230.80;;;;;;;;;;4966231;28;20186;-54
2022/08/30 10:59:25;;;;;;;380.35;235.13;;;;;;;;;;4965025;28;20237;-54
2022/08/30 11:02:17;;;;;;;381.15;238.95;;;;;;;;;;4973502;28;20563;-54
2022/08/30 11:04:43;;;;;;;370.00;235.77;;;;;;;;;;4957684;28;20218;-55
2022/08/30 11:07:18;;;;;;;375.00;230.77;;;;;;;;;;4970052;28;20217;-55
2022/08/30 11:09:47;;;;;;;371.02;226.85;;;;;;;;;;4970814;28;20182;-55
2022/08/30 11:12:16;;;;;;;382.50;230.48;;;;;;;;;;4971988;28;20604;-55
2022/08/30 11:14:43;;;;;;;374.30;224.32;;;;;;;;;;4969649;28;20575;-55
2022/08/30 11:17:22;;;;;;;392.98;239.90;;;;;;;;;;4972981;28;20210;-55
2022/08/30 11:19:48;;;;;;;378.65;243.27;;;;;;;;;;4972607;28;20235;-55
2022/08/30 11:22:22;;;;;;;377.13;242.50;;;;;;;;;;4970128;28;20230;-55
2022/08/30 11:25:08;;;;;;;382.15;245.55;;;;;;;;;;4971144;28;20613;-55
2022/08/30 11:27:48;;;;;;;379.73;249.57;;;;;;;;;;4966634;28;20206;-55
2022/08/30 11:30:26;;;;;;;389.23;243.85;;;;;;;;;;4968435;28;20590;-55
2022/08/30 11:33:00;;;;;;;375.85;234.43;;;;;;;;;;4967481;28;20210;-55
2022/08/30 11:35:36;;;;;;;369.85;229.82;;;;;;;;;;4968750;28;20374;-55
2022/08/30 11:38:11;;;;;;;351.27;222.82;;;;;;;;;;4967433;28;20578;-55
2022/08/30 11:40:46;;;;;;;390.30;256.20;;;;;;;;;;4964143;28;20256;-55
2022/08/30 11:43:30;;;;;;;398.20;262.27;;;;;;;;;;4966071;28;20214;-55
2022/08/30 11:46:13;;;;;;;382.25;253.55;;;;;;;;;;4962785;28;20218;-55
2022/08/30 11:48:48;;;;;;;372.60;241.52;;;;;;;;;;4969843;28;20192;-55
2022/08/30 11:51:33;;;;;;;359.25;235.93;;;;;;;;;;4968632;28;20185;-55
2022/08/30 11:54:06;;;;;;;389.90;248.82;;;;;;;;;;4969715;28;20222;-55
2022/08/30 11:56:45;;;;;;;375.38;241.23;;;;;;;;;;4971127;28;20210;-55
2022/08/30 11:59:17;;;;;;;383.45;247.13;;;;;;;;;;4972131;28;20214;-55
2022/08/30 12:01:44;;;;;;;384.08;248.68;;;;;;;;;;4969440;28;20214;-55
2022/08/30 12:04:19;;;;;;;381.23;246.10;;;;;;;;;;4966951;28;20253;-55
2022/08/30 12:06:49;;;;;;;375.75;245.52;;;;;;;;;;4973199;28;20182;-55
2022/08/30 12:09:25;;;;;;;380.33;260.02;;;;;;;;;;4976202;28;20811;-55
2022/08/30 12:11:58;;;;;;;364.45;251.88;;;;;;;;;;4968772;28;20222;-55
2022/08/30 12:14:37;;;;;;;375.05;249.95;;;;;;;;;;4967673;28;20214;-55
2022/08/30 12:19:56;;;;;;;391.48;258.15;;;;;;;;;;4968431;28;20300;-55
2022/08/30 12:22:22;;;;;;;386.80;265.73;;;;;;;;;;4969726;28;20210;-55
2022/08/30 12:24:51;;;;;;;375.83;254.10;;;;;;;;;;4973009;28;20233;-55
2022/08/30 12:27:21;;;;;;;377.27;262.92;;;;;;;;;;4970299;28;20179;-55
2022/08/30 12:29:55;;;;;;;381.58;271.33;;;;;;;;;;4968768;28;20240;-55
2022/08/30 12:32:21;;;;;;;369.63;260.40;;;;;;;;;;4972157;28;20221;-55
2022/08/30 12:34:50;;;;;;;375.25;266.52;;;;;;;;;;4968892;28;20547;-55
2022/08/30 12:37:19;;;;;;;368.27;253.15;;;;;;;;;;4962799;28;20241;-55
2022/08/30 12:39:46;;;;;;;382.73;256.67;;;;;;;;;;4968169;28;20300;-55
2022/08/30 12:42:12;;;;;;;385.65;266.13;;;;;;;;;;4965274;28;20182;-55
2022/08/30 12:44:39;;;;;;;375.10;259.42;;;;;;;;;;4965818;28;20255;-55
2022/08/30 12:47:05;;;;;;;438.45;296.85;;;;;;;;;;4957602;28;20205;-56
2022/08/30 12:49:33;;;;;;;499.67;321.65;;;;;;;;;;4937108;28;20253;-58
2022/08/30 12:52:22;;;;;;;433.58;280.48;;;;;;;;;;4951219;28;20760;-56
2022/08/30 12:54:48;;;;;;;399.95;270.08;;;;;;;;;;4960326;28;20562;-56
2022/08/30 12:57:34;;;;;;;394.58;269.80;;;;;;;;;;4949409;28;20198;-57
2022/08/30 13:00:00;;;;;;;440.17;280.90;;;;;;;;;;4947997;28;20222;-57
2022/08/30 13:02:27;;;;;;;443.38;288.92;;;;;;;;;;4951178;28;20210;-57
2022/08/30 13:04:54;;;;;;;461.70;302.55;;;;;;;;;;4951415;28;20210;-56
2022/08/30 13:07:24;;;;;;;416.13;276.95;;;;;;;;;;4949846;28;20227;-55
2022/08/30 13:09:59;;;;;;;417.33;278.25;;;;;;;;;;4952908;28;22106;-55
2022/08/30 13:12:26;;;;;;;428.17;286.33;;;;;;;;;;4949850;28;20328;-55
2022/08/30 13:14:53;;;;;;;473.33;308.65;;;;;;;;;;4950476;28;21230;-55
2022/08/30 13:17:19;;;;;;;435.38;294.95;;;;;;;;;;4953705;28;20218;-57
2022/08/30 13:19:54;;;;;;;441.42;302.38;;;;;;;;;;4952328;28;20276;-56
2022/08/30 13:22:31;;;;;;;384.38;282.60;;;;;;;;;;4960010;28;20210;-55
2022/08/30 13:24:57;;;;;;;414.27;304.17;;;;;;;;;;4959943;28;20228;-54
2022/08/30 13:27:23;;;;;;;476.77;334.60;;;;;;;;;;4944490;28;20252;-54
2022/08/30 13:29:49;;;;;;;481.40;332.13;;;;;;;;;;4947787;28;20221;-55
2022/08/30 13:32:16;;;;;;;459.75;323.65;;;;;;;;;;4944847;28;20273;-55
2022/08/30 13:34:42;;;;;;;416.58;303.67;;;;;;;;;;4954746;28;20683;-55
2022/08/30 13:37:10;;;;;;;409.05;293.30;;;;;;;;;;4956789;28;20552;-54
2022/08/30 13:39:36;;;;;;;405.45;294.67;;;;;;;;;;4956278;28;20264;-54
2022/08/30 13:42:02;;;;;;;394.05;287.50;;;;;;;;;;4953384;28;20178;-55
2022/08/30 13:44:28;;;;;;;444.33;324.58;;;;;;;;;;4948411;28;20770;-55
2022/08/30 13:46:57;;;;;;;509.30;344.13;;;;;;;;;;4955309;28;20203;-55
2022/08/30 13:49:25;;;;;;;422.98;303.77;;;;;;;;;;4954750;28;20210;-54
2022/08/30 13:51:52;;;;;;;486.60;321.58;;;;;;;;;;4949566;28;20210;-55
2022/08/30 13:54:20;;;;;;;452.23;322.77;;;;;;;;;;4952941;28;20264;-54
2022/08/30 13:56:47;;;;;;;412.52;297.05;;;;;;;;;;4953270;28;20665;-55
2022/08/30 13:59:13;;;;;;;420.48;303.70;;;;;;;;;;4951607;28;20218;-55
2022/08/30 14:01:39;;;;;;;411.45;292.67;;;;;;;;;;4956155;28;20619;-55
2022/08/30 14:04:05;;;;;;;416.30;307.88;;;;;;;;;;4955946;28;20214;-55
2022/08/30 14:06:31;;;;;;;402.88;294.67;;;;;;;;;;4960003;28;20915;-54
2022/08/30 14:08:57;;;;;;;407.85;300.05;;;;;;;;;;4959040;28;20450;-54